sensor_id;sensor_type;location;lat;lon;timestamp;pressure;altitude;pressure_sealevel;temperature;humidity
48530;BME280;34927;37.302;-121.982;2023-03-09T00:00:52;101313.0;;;22.93;27.41
48530;BME280;34927;37.302;-121.982;2023-03-09T00:01:57;101312.0;;;22.92;27.42
48530;BME280;34927;37.302;-121.982;2023-03-09T00:03:01;101309.0;;;22.93;27.47
48530;BME280;34927;37.302;-121.982;2023-03-09T00:04:09;101307.0;;;22.99;27.38
48530;BME280;34927;37.302;-121.982;2023-03-09T00:05:16;101307.0;;;23.11;27.29
48530;BME280;34927;37.302;-121.982;2023-03-09T00:06:22;101307.0;;;23.15;27.28
48530;BME280;34927;37.302;-121.982;2023-03-09T00:07:26;101306.0;;;23.18;27.26
48530;BME280;34927;37.302;-121.982;2023-03-09T00:08:31;101306.0;;;23.12;27.31
48530;BME280;34927;37.302;-121.982;2023-03-09T00:09:37;101307.0;;;23.12;27.38
48530;BME280;34927;37.302;-121.982;2023-03-09T00:10:41;101306.0;;;23.09;27.46
48530;BME280;34927;37.302;-121.982;2023-03-09T00:11:48;101303.0;;;23.05;27.51
48530;BME280;34927;37.302;-121.982;2023-03-09T00:12:52;101303.0;;;23.07;27.47
48530;BME280;34927;37.302;-121.982;2023-03-09T00:13:56;101306.0;;;23.07;27.46
48530;BME280;34927;37.302;-121.982;2023-03-09T00:15:02;101305.0;;;23.10;27.42
48530;BME280;34927;37.302;-121.982;2023-03-09T00:16:09;101308.0;;;23.11;27.43
48530;BME280;34927;37.302;-121.982;2023-03-09T00:17:12;101308.0;;;23.11;27.46
48530;BME280;34927;37.302;-121.982;2023-03-09T00:18:17;101310.0;;;23.04;27.50
48530;BME280;34927;37.302;-121.982;2023-03-09T00:19:29;101309.0;;;23.05;27.50
48530;BME280;34927;37.302;-121.982;2023-03-09T00:20:32;101311.0;;;23.16;27.42
48530;BME280;34927;37.302;-121.982;2023-03-09T00:21:37;101310.0;;;23.15;27.42
48530;BME280;34927;37.302;-121.982;2023-03-09T00:22:42;101309.0;;;23.19;27.39
48530;BME280;34927;37.302;-121.982;2023-03-09T00:23:46;101307.0;;;23.23;27.39
48530;BME280;34927;37.302;-121.982;2023-03-09T00:24:53;101304.0;;;23.22;27.42
48530;BME280;34927;37.302;-121.982;2023-03-09T00:26:02;101303.0;;;23.16;27.44
48530;BME280;34927;37.302;-121.982;2023-03-09T00:27:07;101302.0;;;23.14;27.45
48530;BME280;34927;37.302;-121.982;2023-03-09T00:28:12;101300.0;;;23.18;27.51
48530;BME280;34927;37.302;-121.982;2023-03-09T00:29:17;101298.0;;;23.14;27.56
48530;BME280;34927;37.302;-121.982;2023-03-09T00:30:22;101296.0;;;23.11;27.56
48530;BME280;34927;37.302;-121.982;2023-03-09T00:31:26;101298.0;;;23.14;27.52
48530;BME280;34927;37.302;-121.982;2023-03-09T00:32:31;101298.0;;;23.13;27.63
48530;BME280;34927;37.302;-121.982;2023-03-09T00:33:36;101299.0;;;23.10;27.70
48530;BME280;34927;37.302;-121.982;2023-03-09T00:34:42;101299.0;;;23.09;27.70
48530;BME280;34927;37.302;-121.982;2023-03-09T00:35:46;101300.0;;;23.07;27.73
48530;BME280;34927;37.302;-121.982;2023-03-09T00:36:52;101299.0;;;23.08;27.72
48530;BME280;34927;37.302;-121.982;2023-03-09T00:37:56;101297.0;;;23.04;27.76
48530;BME280;34927;37.302;-121.982;2023-03-09T00:39:02;101298.0;;;23.05;27.79
48530;BME280;34927;37.302;-121.982;2023-03-09T00:40:07;101297.0;;;23.01;27.82
48530;BME280;34927;37.302;-121.982;2023-03-09T00:41:12;101298.0;;;23.02;27.81
48530;BME280;34927;37.302;-121.982;2023-03-09T00:42:16;101299.0;;;23.00;27.86
48530;BME280;34927;37.302;-121.982;2023-03-09T00:43:21;101298.0;;;22.93;27.88
48530;BME280;34927;37.302;-121.982;2023-03-09T00:44:26;101296.0;;;22.82;27.94
48530;BME280;34927;37.302;-121.982;2023-03-09T00:45:32;101294.0;;;22.77;28.11
48530;BME280;34927;37.302;-121.982;2023-03-09T00:46:37;101294.0;;;22.81;28.08
48530;BME280;34927;37.302;-121.982;2023-03-09T00:47:41;101296.0;;;22.74;28.16
48530;BME280;34927;37.302;-121.982;2023-03-09T00:48:46;101294.0;;;22.66;28.21
48530;BME280;34927;37.302;-121.982;2023-03-09T00:49:51;101294.0;;;22.68;28.24
48530;BME280;34927;37.302;-121.982;2023-03-09T00:50:56;101296.0;;;22.59;28.38
48530;BME280;34927;37.302;-121.982;2023-03-09T00:52:02;101294.0;;;22.61;28.37
48530;BME280;34927;37.302;-121.982;2023-03-09T00:53:06;101297.0;;;22.62;28.31
48530;BME280;34927;37.302;-121.982;2023-03-09T00:54:13;101300.0;;;22.62;28.36
48530;BME280;34927;37.302;-121.982;2023-03-09T00:55:16;101300.0;;;22.52;28.51
48530;BME280;34927;37.302;-121.982;2023-03-09T00:56:24;101300.0;;;22.57;28.43
48530;BME280;34927;37.302;-121.982;2023-03-09T00:57:32;101300.0;;;22.61;28.39
48530;BME280;34927;37.302;-121.982;2023-03-09T00:58:36;101302.0;;;22.59;28.46
48530;BME280;34927;37.302;-121.982;2023-03-09T00:59:44;101301.0;;;22.62;28.41
48530;BME280;34927;37.302;-121.982;2023-03-09T01:00:47;101304.0;;;22.58;28.52
48530;BME280;34927;37.302;-121.982;2023-03-09T01:01:51;101302.0;;;22.60;28.39
48530;BME280;34927;37.302;-121.982;2023-03-09T01:02:56;101303.0;;;22.57;28.43
48530;BME280;34927;37.302;-121.982;2023-03-09T01:04:02;101303.0;;;22.54;28.56
48530;BME280;34927;37.302;-121.982;2023-03-09T01:05:08;101302.0;;;22.54;28.52
48530;BME280;34927;37.302;-121.982;2023-03-09T01:06:13;101299.0;;;22.50;28.56
48530;BME280;34927;37.302;-121.982;2023-03-09T01:07:17;101299.0;;;22.46;28.60
48530;BME280;34927;37.302;-121.982;2023-03-09T01:08:22;101296.0;;;22.47;28.62
48530;BME280;34927;37.302;-121.982;2023-03-09T01:09:26;101295.0;;;22.45;28.62
48530;BME280;34927;37.302;-121.982;2023-03-09T01:10:31;101295.0;;;22.48;28.63
48530;BME280;34927;37.302;-121.982;2023-03-09T01:11:37;101294.0;;;22.43;28.63
48530;BME280;34927;37.302;-121.982;2023-03-09T01:12:42;101293.0;;;22.46;28.62
48530;BME280;34927;37.302;-121.982;2023-03-09T01:13:47;101291.0;;;22.40;28.65
48530;BME280;34927;37.302;-121.982;2023-03-09T01:14:53;101291.0;;;22.41;28.66
48530;BME280;34927;37.302;-121.982;2023-03-09T01:15:56;101293.0;;;22.40;28.65
48530;BME280;34927;37.302;-121.982;2023-03-09T01:17:02;101294.0;;;22.36;28.75
48530;BME280;34927;37.302;-121.982;2023-03-09T01:18:06;101291.0;;;22.41;28.64
48530;BME280;34927;37.302;-121.982;2023-03-09T01:19:12;101292.0;;;22.37;28.69
48530;BME280;34927;37.302;-121.982;2023-03-09T01:20:16;101294.0;;;22.44;28.64
48530;BME280;34927;37.302;-121.982;2023-03-09T01:21:22;101297.0;;;22.43;28.64
48530;BME280;34927;37.302;-121.982;2023-03-09T01:22:27;101298.0;;;22.40;28.70
48530;BME280;34927;37.302;-121.982;2023-03-09T01:23:31;101298.0;;;22.38;28.72
48530;BME280;34927;37.302;-121.982;2023-03-09T01:24:36;101299.0;;;22.38;28.73
48530;BME280;34927;37.302;-121.982;2023-03-09T01:25:42;101299.0;;;22.35;28.79
48530;BME280;34927;37.302;-121.982;2023-03-09T01:26:47;101297.0;;;22.43;28.70
48530;BME280;34927;37.302;-121.982;2023-03-09T01:27:52;101297.0;;;22.31;28.83
48530;BME280;34927;37.302;-121.982;2023-03-09T01:28:57;101298.0;;;22.31;28.81
48530;BME280;34927;37.302;-121.982;2023-03-09T01:30:02;101295.0;;;22.35;28.82
48530;BME280;34927;37.302;-121.982;2023-03-09T01:31:08;101294.0;;;22.26;28.88
48530;BME280;34927;37.302;-121.982;2023-03-09T01:32:11;101291.0;;;22.31;28.86
48530;BME280;34927;37.302;-121.982;2023-03-09T01:33:16;101290.0;;;22.29;28.87
48530;BME280;34927;37.302;-121.982;2023-03-09T01:34:22;101288.0;;;22.24;28.95
48530;BME280;34927;37.302;-121.982;2023-03-09T01:35:27;101287.0;;;22.18;28.94
48530;BME280;34927;37.302;-121.982;2023-03-09T01:36:31;101286.0;;;22.14;29.05
48530;BME280;34927;37.302;-121.982;2023-03-09T01:37:36;101285.0;;;22.11;29.06
48530;BME280;34927;37.302;-121.982;2023-03-09T01:38:42;101284.0;;;22.20;28.99
48530;BME280;34927;37.302;-121.982;2023-03-09T01:39:46;101283.0;;;22.24;28.92
48530;BME280;34927;37.302;-121.982;2023-03-09T01:40:52;101282.0;;;22.21;28.91
48530;BME280;34927;37.302;-121.982;2023-03-09T01:41:57;101283.0;;;22.24;28.88
48530;BME280;34927;37.302;-121.982;2023-03-09T01:44:16;101281.0;;;22.25;28.88
48530;BME280;34927;37.302;-121.982;2023-03-09T01:46:37;101280.0;;;22.23;28.97
48530;BME280;34927;37.302;-121.982;2023-03-09T01:47:41;101278.0;;;22.20;28.94
48530;BME280;34927;37.302;-121.982;2023-03-09T01:48:48;101281.0;;;22.14;29.07
48530;BME280;34927;37.302;-121.982;2023-03-09T01:49:51;101280.0;;;22.20;29.00
48530;BME280;34927;37.302;-121.982;2023-03-09T01:50:56;101280.0;;;22.35;29.06
48530;BME280;34927;37.302;-121.982;2023-03-09T01:52:07;101282.0;;;22.76;28.70
48530;BME280;34927;37.302;-121.982;2023-03-09T01:53:14;101286.0;;;23.22;28.11
48530;BME280;34927;37.302;-121.982;2023-03-09T01:54:24;101285.0;;;23.67;27.40
48530;BME280;34927;37.302;-121.982;2023-03-09T01:55:41;101284.0;;;24.16;26.77
48530;BME280;34927;37.302;-121.982;2023-03-09T01:56:48;101282.0;;;24.50;26.39
48530;BME280;34927;37.302;-121.982;2023-03-09T01:57:55;101280.0;;;24.81;25.96
48530;BME280;34927;37.302;-121.982;2023-03-09T01:59:03;101279.0;;;25.11;25.54
48530;BME280;34927;37.302;-121.982;2023-03-09T02:00:11;101281.0;;;25.38;25.23
48530;BME280;34927;37.302;-121.982;2023-03-09T02:01:16;101281.0;;;25.59;24.98
48530;BME280;34927;37.302;-121.982;2023-03-09T02:02:24;101283.0;;;25.81;24.74
48530;BME280;34927;37.302;-121.982;2023-03-09T02:03:35;101284.0;;;26.03;24.50
48530;BME280;34927;37.302;-121.982;2023-03-09T02:04:45;101284.0;;;26.08;24.24
48530;BME280;34927;37.302;-121.982;2023-03-09T02:05:55;101284.0;;;25.79;24.57
48530;BME280;34927;37.302;-121.982;2023-03-09T02:07:02;101283.0;;;25.57;25.03
48530;BME280;34927;37.302;-121.982;2023-03-09T02:08:08;101289.0;;;25.18;25.52
48530;BME280;34927;37.302;-121.982;2023-03-09T02:09:19;101289.0;;;24.83;26.17
48530;BME280;34927;37.302;-121.982;2023-03-09T02:10:29;101288.0;;;24.68;27.01
48530;BME280;34927;37.302;-121.982;2023-03-09T02:11:37;101289.0;;;24.37;27.21
48530;BME280;34927;37.302;-121.982;2023-03-09T02:12:42;101292.0;;;24.20;27.50
48530;BME280;34927;37.302;-121.982;2023-03-09T02:13:49;101292.0;;;24.29;27.15
48530;BME280;34927;37.302;-121.982;2023-03-09T02:14:58;101291.0;;;24.66;26.90
48530;BME280;34927;37.302;-121.982;2023-03-09T02:16:01;101292.0;;;25.06;26.54
48530;BME280;34927;37.302;-121.982;2023-03-09T02:17:13;101294.0;;;25.34;26.22
48530;BME280;34927;37.302;-121.982;2023-03-09T02:18:17;101295.0;;;25.67;25.83
48530;BME280;34927;37.302;-121.982;2023-03-09T02:19:33;101299.0;;;25.99;25.47
48530;BME280;34927;37.302;-121.982;2023-03-09T02:20:47;101298.0;;;26.28;25.20
48530;BME280;34927;37.302;-121.982;2023-03-09T02:21:56;101300.0;;;26.51;24.88
48530;BME280;34927;37.302;-121.982;2023-03-09T02:23:02;101299.0;;;26.60;24.64
48530;BME280;34927;37.302;-121.982;2023-03-09T02:24:12;101298.0;;;26.48;24.83
48530;BME280;34927;37.302;-121.982;2023-03-09T02:25:26;101300.0;;;26.20;25.34
48530;BME280;34927;37.302;-121.982;2023-03-09T02:26:36;101302.0;;;25.83;25.72
48530;BME280;34927;37.302;-121.982;2023-03-09T02:27:42;101304.0;;;25.48;26.56
48530;BME280;34927;37.302;-121.982;2023-03-09T02:28:46;101306.0;;;25.26;26.72
48530;BME280;34927;37.302;-121.982;2023-03-09T02:29:52;101307.0;;;25.06;27.18
48530;BME280;34927;37.302;-121.982;2023-03-09T02:30:57;101306.0;;;24.89;27.39
48530;BME280;34927;37.302;-121.982;2023-03-09T02:32:02;101307.0;;;24.65;27.65
48530;BME280;34927;37.302;-121.982;2023-03-09T02:33:09;101312.0;;;24.47;27.75
48530;BME280;34927;37.302;-121.982;2023-03-09T02:34:12;101315.0;;;24.42;27.80
48530;BME280;34927;37.302;-121.982;2023-03-09T02:35:17;101318.0;;;24.35;27.89
48530;BME280;34927;37.302;-121.982;2023-03-09T02:36:22;101318.0;;;24.30;27.97
48530;BME280;34927;37.302;-121.982;2023-03-09T02:37:30;101324.0;;;24.14;28.06
48530;BME280;34927;37.302;-121.982;2023-03-09T02:38:37;101327.0;;;24.17;28.14
48530;BME280;34927;37.302;-121.982;2023-03-09T02:39:46;101329.0;;;24.12;27.96
48530;BME280;34927;37.302;-121.982;2023-03-09T02:40:53;101332.0;;;24.48;27.78
48530;BME280;34927;37.302;-121.982;2023-03-09T02:41:58;101330.0;;;24.87;27.40
48530;BME280;34927;37.302;-121.982;2023-03-09T02:43:03;101332.0;;;25.17;27.07
48530;BME280;34927;37.302;-121.982;2023-03-09T02:44:07;101334.0;;;25.52;26.60
48530;BME280;34927;37.302;-121.982;2023-03-09T02:45:14;101334.0;;;25.80;26.24
48530;BME280;34927;37.302;-121.982;2023-03-09T02:46:17;101333.0;;;26.00;25.88
48530;BME280;34927;37.302;-121.982;2023-03-09T02:47:22;101334.0;;;26.08;25.59
48530;BME280;34927;37.302;-121.982;2023-03-09T02:48:26;101333.0;;;25.90;25.68
48530;BME280;34927;37.302;-121.982;2023-03-09T02:49:31;101337.0;;;25.50;27.05
48530;BME280;34927;37.302;-121.982;2023-03-09T02:50:36;101335.0;;;25.24;27.28
48530;BME280;34927;37.302;-121.982;2023-03-09T02:51:42;101335.0;;;25.03;27.58
48530;BME280;34927;37.302;-121.982;2023-03-09T02:52:46;101338.0;;;24.82;27.60
48530;BME280;34927;37.302;-121.982;2023-03-09T02:53:51;101340.0;;;24.69;27.64
48530;BME280;34927;37.302;-121.982;2023-03-09T02:54:56;101341.0;;;24.66;27.61
48530;BME280;34927;37.302;-121.982;2023-03-09T02:56:02;101343.0;;;24.45;27.92
48530;BME280;34927;37.302;-121.982;2023-03-09T02:57:07;101349.0;;;24.31;28.17
48530;BME280;34927;37.302;-121.982;2023-03-09T02:58:12;101350.0;;;24.17;28.21
48530;BME280;34927;37.302;-121.982;2023-03-09T02:59:17;101349.0;;;24.08;28.33
48530;BME280;34927;37.302;-121.982;2023-03-09T03:00:21;101347.0;;;23.92;28.50
48530;BME280;34927;37.302;-121.982;2023-03-09T03:01:26;101350.0;;;23.93;28.48
48530;BME280;34927;37.302;-121.982;2023-03-09T03:02:32;101349.0;;;23.90;28.47
48530;BME280;34927;37.302;-121.982;2023-03-09T03:03:37;101351.0;;;24.11;27.69
48530;BME280;34927;37.302;-121.982;2023-03-09T03:04:42;101351.0;;;24.52;27.13
48530;BME280;34927;37.302;-121.982;2023-03-09T03:05:47;101351.0;;;24.86;26.56
48530;BME280;34927;37.302;-121.982;2023-03-09T03:06:52;101352.0;;;25.26;26.03
48530;BME280;34927;37.302;-121.982;2023-03-09T03:07:57;101355.0;;;25.66;25.45
48530;BME280;34927;37.302;-121.982;2023-03-09T03:09:02;101355.0;;;25.92;25.07
48530;BME280;34927;37.302;-121.982;2023-03-09T03:10:08;101352.0;;;26.07;24.64
48530;BME280;34927;37.302;-121.982;2023-03-09T03:11:11;101350.0;;;25.95;24.83
48530;BME280;34927;37.302;-121.982;2023-03-09T03:12:16;101352.0;;;25.67;25.32
48530;BME280;34927;37.302;-121.982;2023-03-09T03:13:22;101350.0;;;25.27;26.31
48530;BME280;34927;37.302;-121.982;2023-03-09T03:14:26;101351.0;;;24.99;26.53
48530;BME280;34927;37.302;-121.982;2023-03-09T03:15:32;101350.0;;;24.80;26.65
48530;BME280;34927;37.302;-121.982;2023-03-09T03:16:37;101356.0;;;24.71;26.92
48530;BME280;34927;37.302;-121.982;2023-03-09T03:17:41;101357.0;;;24.51;27.13
48530;BME280;34927;37.302;-121.982;2023-03-09T03:18:46;101365.0;;;24.48;27.14
48530;BME280;34927;37.302;-121.982;2023-03-09T03:19:51;101366.0;;;24.39;27.18
48530;BME280;34927;37.302;-121.982;2023-03-09T03:20:57;101370.0;;;24.22;27.47
48530;BME280;34927;37.302;-121.982;2023-03-09T03:22:02;101373.0;;;23.99;27.73
48530;BME280;34927;37.302;-121.982;2023-03-09T03:23:07;101377.0;;;23.94;27.72
48530;BME280;34927;37.302;-121.982;2023-03-09T03:24:11;101379.0;;;23.91;27.72
48530;BME280;34927;37.302;-121.982;2023-03-09T03:25:17;101381.0;;;23.86;27.90
48530;BME280;34927;37.302;-121.982;2023-03-09T03:26:21;101381.0;;;23.75;27.93
48530;BME280;34927;37.302;-121.982;2023-03-09T03:27:27;101380.0;;;23.66;28.06
48530;BME280;34927;37.302;-121.982;2023-03-09T03:28:32;101380.0;;;23.65;28.10
48530;BME280;34927;37.302;-121.982;2023-03-09T03:29:36;101378.0;;;23.60;28.07
48530;BME280;34927;37.302;-121.982;2023-03-09T03:30:42;101375.0;;;23.54;28.21
48530;BME280;34927;37.302;-121.982;2023-03-09T03:31:47;101373.0;;;23.41;28.31
48530;BME280;34927;37.302;-121.982;2023-03-09T03:32:51;101374.0;;;23.76;28.14
48530;BME280;34927;37.302;-121.982;2023-03-09T03:33:57;101374.0;;;24.12;27.66
48530;BME280;34927;37.302;-121.982;2023-03-09T03:35:01;101375.0;;;24.56;27.03
48530;BME280;34927;37.302;-121.982;2023-03-09T03:36:07;101374.0;;;24.91;26.54
48530;BME280;34927;37.302;-121.982;2023-03-09T03:37:12;101373.0;;;25.25;26.07
48530;BME280;34927;37.302;-121.982;2023-03-09T03:38:17;101375.0;;;25.41;25.55
48530;BME280;34927;37.302;-121.982;2023-03-09T03:39:22;101378.0;;;25.40;25.62
48530;BME280;34927;37.302;-121.982;2023-03-09T03:40:26;101376.0;;;25.31;25.63
48530;BME280;34927;37.302;-121.982;2023-03-09T03:41:31;101379.0;;;25.00;25.98
48530;BME280;34927;37.302;-121.982;2023-03-09T03:42:36;101379.0;;;24.75;26.27
48530;BME280;34927;37.302;-121.982;2023-03-09T03:43:42;101379.0;;;24.60;26.84
48530;BME280;34927;37.302;-121.982;2023-03-09T03:44:47;101378.0;;;24.40;27.16
48530;BME280;34927;37.302;-121.982;2023-03-09T03:45:51;101380.0;;;24.29;27.63
48530;BME280;34927;37.302;-121.982;2023-03-09T03:46:56;101381.0;;;24.18;27.60
48530;BME280;34927;37.302;-121.982;2023-03-09T03:48:02;101382.0;;;24.08;27.80
48530;BME280;34927;37.302;-121.982;2023-03-09T03:49:07;101386.0;;;24.00;28.02
48530;BME280;34927;37.302;-121.982;2023-03-09T03:50:12;101386.0;;;23.86;28.11
48530;BME280;34927;37.302;-121.982;2023-03-09T03:51:17;101384.0;;;23.73;28.18
48530;BME280;34927;37.302;-121.982;2023-03-09T03:52:22;101382.0;;;23.68;28.44
48530;BME280;34927;37.302;-121.982;2023-03-09T03:53:26;101378.0;;;23.55;28.54
48530;BME280;34927;37.302;-121.982;2023-03-09T03:54:31;101377.0;;;23.43;28.53
48530;BME280;34927;37.302;-121.982;2023-03-09T03:55:36;101378.0;;;23.53;28.33
48530;BME280;34927;37.302;-121.982;2023-03-09T03:56:42;101377.0;;;23.51;28.34
48530;BME280;34927;37.302;-121.982;2023-03-09T03:57:46;101376.0;;;23.38;28.54
48530;BME280;34927;37.302;-121.982;2023-03-09T03:58:52;101375.0;;;23.44;28.55
48530;BME280;34927;37.302;-121.982;2023-03-09T03:59:57;101374.0;;;23.49;28.20
48530;BME280;34927;37.302;-121.982;2023-03-09T04:01:01;101373.0;;;23.82;28.01
48530;BME280;34927;37.302;-121.982;2023-03-09T04:02:06;101374.0;;;24.15;27.47
48530;BME280;34927;37.302;-121.982;2023-03-09T04:03:11;101371.0;;;24.56;26.94
48530;BME280;34927;37.302;-121.982;2023-03-09T04:04:17;101369.0;;;24.89;26.44
48530;BME280;34927;37.302;-121.982;2023-03-09T04:05:22;101370.0;;;25.20;26.00
48530;BME280;34927;37.302;-121.982;2023-03-09T04:06:27;101372.0;;;25.45;25.53
48530;BME280;34927;37.302;-121.982;2023-03-09T04:07:32;101370.0;;;25.35;25.61
48530;BME280;34927;37.302;-121.982;2023-03-09T04:08:37;101372.0;;;25.22;25.93
48530;BME280;34927;37.302;-121.982;2023-03-09T04:09:41;101374.0;;;24.81;26.66
48530;BME280;34927;37.302;-121.982;2023-03-09T04:10:47;101369.0;;;24.62;26.84
48530;BME280;34927;37.302;-121.982;2023-03-09T04:11:52;101371.0;;;24.48;26.98
48530;BME280;34927;37.302;-121.982;2023-03-09T04:12:56;101372.0;;;24.39;27.09
48530;BME280;34927;37.302;-121.982;2023-03-09T04:14:01;101373.0;;;24.27;27.24
48530;BME280;34927;37.302;-121.982;2023-03-09T04:15:07;101375.0;;;24.05;27.31
48530;BME280;34927;37.302;-121.982;2023-03-09T04:16:12;101374.0;;;24.00;27.49
48530;BME280;34927;37.302;-121.982;2023-03-09T04:17:16;101376.0;;;23.87;27.57
48530;BME280;34927;37.302;-121.982;2023-03-09T04:18:21;101375.0;;;23.75;27.74
48530;BME280;34927;37.302;-121.982;2023-03-09T04:19:26;101376.0;;;23.66;27.77
48530;BME280;34927;37.302;-121.982;2023-03-09T04:20:31;101372.0;;;23.56;27.99
48530;BME280;34927;37.302;-121.982;2023-03-09T04:21:36;101371.0;;;23.60;27.78
48530;BME280;34927;37.302;-121.982;2023-03-09T04:22:41;101370.0;;;24.00;27.44
48530;BME280;34927;37.302;-121.982;2023-03-09T04:23:48;101370.0;;;24.32;27.00
48530;BME280;34927;37.302;-121.982;2023-03-09T04:24:56;101371.0;;;24.75;26.48
48530;BME280;34927;37.302;-121.982;2023-03-09T04:26:03;101371.0;;;25.12;25.96
48530;BME280;34927;37.302;-121.982;2023-03-09T04:27:07;101373.0;;;25.42;25.58
48530;BME280;34927;37.302;-121.982;2023-03-09T04:28:12;101376.0;;;25.61;25.25
48530;BME280;34927;37.302;-121.982;2023-03-09T04:29:16;101380.0;;;25.48;25.31
48530;BME280;34927;37.302;-121.982;2023-03-09T04:30:21;101381.0;;;25.36;25.51
48530;BME280;34927;37.302;-121.982;2023-03-09T04:31:27;101384.0;;;25.05;26.15
48530;BME280;34927;37.302;-121.982;2023-03-09T04:32:31;101389.0;;;24.76;26.45
48530;BME280;34927;37.302;-121.982;2023-03-09T04:33:36;101393.0;;;24.47;26.89
48530;BME280;34927;37.302;-121.982;2023-03-09T04:34:41;101394.0;;;24.47;27.21
48530;BME280;34927;37.302;-121.982;2023-03-09T04:35:47;101397.0;;;24.23;27.33
48530;BME280;34927;37.302;-121.982;2023-03-09T04:36:51;101399.0;;;24.12;27.50
48530;BME280;34927;37.302;-121.982;2023-03-09T04:37:57;101401.0;;;23.95;27.65
48530;BME280;34927;37.302;-121.982;2023-03-09T04:39:02;101403.0;;;23.88;27.71
48530;BME280;34927;37.302;-121.982;2023-03-09T04:40:09;101401.0;;;23.72;27.87
48530;BME280;34927;37.302;-121.982;2023-03-09T04:41:12;101404.0;;;23.68;27.89
48530;BME280;34927;37.302;-121.982;2023-03-09T04:42:16;101403.0;;;23.40;28.15
48530;BME280;34927;37.302;-121.982;2023-03-09T04:43:21;101404.0;;;23.53;27.78
48530;BME280;34927;37.302;-121.982;2023-03-09T04:44:27;101405.0;;;23.87;27.41
48530;BME280;34927;37.302;-121.982;2023-03-09T04:45:32;101404.0;;;24.28;26.89
48530;BME280;34927;37.302;-121.982;2023-03-09T04:46:36;101405.0;;;24.62;26.44
48530;BME280;34927;37.302;-121.982;2023-03-09T04:47:41;101405.0;;;25.02;25.97
48530;BME280;34927;37.302;-121.982;2023-03-09T04:48:46;101402.0;;;25.31;25.53
48530;BME280;34927;37.302;-121.982;2023-03-09T04:49:51;101401.0;;;25.48;25.21
48530;BME280;34927;37.302;-121.982;2023-03-09T04:50:57;101401.0;;;25.35;25.28
48530;BME280;34927;37.302;-121.982;2023-03-09T04:52:02;101402.0;;;25.22;25.55
48530;BME280;34927;37.302;-121.982;2023-03-09T04:53:07;101404.0;;;24.91;25.89
48530;BME280;34927;37.302;-121.982;2023-03-09T04:54:12;101407.0;;;24.68;26.04
48530;BME280;34927;37.302;-121.982;2023-03-09T04:55:17;101408.0;;;24.52;26.24
48530;BME280;34927;37.302;-121.982;2023-03-09T04:56:22;101408.0;;;24.36;26.46
48530;BME280;34927;37.302;-121.982;2023-03-09T04:57:27;101409.0;;;24.23;26.62
48530;BME280;34927;37.302;-121.982;2023-03-09T04:58:32;101412.0;;;24.07;26.88
48530;BME280;34927;37.302;-121.982;2023-03-09T04:59:36;101411.0;;;23.87;27.23
48530;BME280;34927;37.302;-121.982;2023-03-09T05:00:42;101411.0;;;23.73;27.40
48530;BME280;34927;37.302;-121.982;2023-03-09T05:01:46;101411.0;;;23.48;27.68
48530;BME280;34927;37.302;-121.982;2023-03-09T05:02:51;101412.0;;;23.31;27.94
48530;BME280;34927;37.302;-121.982;2023-03-09T05:03:56;101411.0;;;23.39;27.85
48530;BME280;34927;37.302;-121.982;2023-03-09T05:05:02;101409.0;;;23.37;28.00
48530;BME280;34927;37.302;-121.982;2023-03-09T05:06:07;101411.0;;;23.51;28.31
48530;BME280;34927;37.302;-121.982;2023-03-09T05:07:11;101415.0;;;23.94;28.00
48530;BME280;34927;37.302;-121.982;2023-03-09T05:08:16;101415.0;;;24.32;27.61
48530;BME280;34927;37.302;-121.982;2023-03-09T05:09:22;101417.0;;;24.72;27.12
48530;BME280;34927;37.302;-121.982;2023-03-09T05:10:27;101414.0;;;25.05;26.69
48530;BME280;34927;37.302;-121.982;2023-03-09T05:11:32;101414.0;;;25.29;26.25
48530;BME280;34927;37.302;-121.982;2023-03-09T05:12:36;101415.0;;;25.37;25.95
48530;BME280;34927;37.302;-121.982;2023-03-09T05:13:42;101420.0;;;25.22;26.04
48530;BME280;34927;37.302;-121.982;2023-03-09T05:14:46;101422.0;;;25.00;26.25
48530;BME280;34927;37.302;-121.982;2023-03-09T05:15:52;101427.0;;;24.71;26.57
48530;BME280;34927;37.302;-121.982;2023-03-09T05:16:57;101428.0;;;24.54;26.77
48530;BME280;34927;37.302;-121.982;2023-03-09T05:18:01;101430.0;;;24.35;27.31
48530;BME280;34927;37.302;-121.982;2023-03-09T05:19:08;101436.0;;;24.11;27.85
48530;BME280;34927;37.302;-121.982;2023-03-09T05:20:12;101431.0;;;23.90;28.23
48530;BME280;34927;37.302;-121.982;2023-03-09T05:21:17;101430.0;;;23.84;28.38
48530;BME280;34927;37.302;-121.982;2023-03-09T05:22:22;101427.0;;;23.73;28.47
48530;BME280;34927;37.302;-121.982;2023-03-09T05:23:26;101429.0;;;23.56;29.05
48530;BME280;34927;37.302;-121.982;2023-03-09T05:24:33;101429.0;;;23.45;29.01
48530;BME280;34927;37.302;-121.982;2023-03-09T05:25:37;101430.0;;;23.28;29.25
48530;BME280;34927;37.302;-121.982;2023-03-09T05:26:42;101428.0;;;23.38;28.66
48530;BME280;34927;37.302;-121.982;2023-03-09T05:27:46;101432.0;;;23.77;28.37
48530;BME280;34927;37.302;-121.982;2023-03-09T05:28:51;101436.0;;;24.09;27.80
48530;BME280;34927;37.302;-121.982;2023-03-09T05:29:57;101438.0;;;24.47;27.29
48530;BME280;34927;37.302;-121.982;2023-03-09T05:31:04;101439.0;;;24.82;26.72
48530;BME280;34927;37.302;-121.982;2023-03-09T05:32:11;101438.0;;;25.16;26.29
48530;BME280;34927;37.302;-121.982;2023-03-09T05:33:17;101437.0;;;25.38;25.76
48530;BME280;34927;37.302;-121.982;2023-03-09T05:34:22;101440.0;;;25.45;25.53
48530;BME280;34927;37.302;-121.982;2023-03-09T05:35:26;101441.0;;;25.26;25.67
48530;BME280;34927;37.302;-121.982;2023-03-09T05:36:32;101441.0;;;25.14;25.83